createdAt,value
2023-02-17T00:00:54.840Z,101406.72
2023-02-17T00:03:24.261Z,101407.38
2023-02-17T00:05:53.657Z,101391.97
2023-02-17T00:08:21.459Z,101387.50
2023-02-17T00:10:56.776Z,101379.38
2023-02-17T00:13:24.356Z,101380.84
2023-02-17T00:15:52.023Z,101373.72
2023-02-17T00:18:19.816Z,101368.28
2023-02-17T00:20:47.442Z,101370.75
2023-02-17T00:23:16.483Z,101363.81
2023-02-17T00:25:44.411Z,101362.47
2023-02-17T00:28:12.009Z,101367.25
2023-02-17T00:30:40.036Z,101376.72
2023-02-17T00:33:07.814Z,101371.41
2023-02-17T00:35:35.396Z,101370.44
2023-02-17T00:38:02.997Z,101364.97
2023-02-17T00:40:31.927Z,101355.84
2023-02-17T00:42:59.475Z,101353.84
2023-02-17T00:45:27.035Z,101350.34
2023-02-17T00:47:54.595Z,101341.41
2023-02-17T00:50:22.225Z,101351.69
2023-02-17T00:52:49.825Z,101351.03
2023-02-17T00:55:17.568Z,101337.59
2023-02-17T00:57:46.509Z,101350.84
2023-02-17T01:00:15.285Z,101337.75
2023-02-17T01:02:42.896Z,101334.78
2023-02-17T01:05:10.526Z,101335.44
2023-02-17T01:07:38.237Z,101334.44
2023-02-17T01:10:06.813Z,101344.38
2023-02-17T01:12:34.613Z,101347.72
2023-02-17T01:15:03.642Z,101347.72
2023-02-17T01:17:31.219Z,101336.94
2023-02-17T01:19:59.453Z,101327.97
2023-02-17T01:22:27.079Z,101304.91
2023-02-17T01:24:54.713Z,101296.25
2023-02-17T01:27:22.342Z,101298.75
2023-02-17T01:29:49.971Z,101288.13
2023-02-17T01:32:18.925Z,101283.66
2023-02-17T01:34:46.500Z,101283.66
2023-02-17T01:37:14.128Z,101276.69
2023-02-17T01:39:41.733Z,101281.34
2023-02-17T01:42:15.838Z,101279.47
2023-02-17T01:45:29.059Z,101275.34
2023-02-17T01:48:02.520Z,101279.47
2023-02-17T01:50:34.169Z,101291.28
2023-02-17T01:53:04.213Z,101288.63
2023-02-17T01:55:33.943Z,101278.19
2023-02-17T01:58:05.781Z,101270.03
2023-02-17T02:00:34.900Z,101267.56
2023-02-17T02:03:07.673Z,101256.94
2023-02-17T02:05:37.545Z,101248.13
2023-02-17T02:08:05.899Z,101239.50
2023-02-17T02:10:33.534Z,101242.16
2023-02-17T02:13:01.195Z,101229.69
2023-02-17T02:15:35.895Z,101230.88
2023-02-17T02:18:21.073Z,101213.94
2023-02-17T02:21:21.613Z,101206.13
2023-02-17T02:24:09.787Z,101210.63
2023-02-17T02:27:25.823Z,101210.63
2023-02-17T02:30:04.018Z,101190.06
2023-02-17T02:32:50.084Z,101200.84
2023-02-17T02:35:23.983Z,101192.72
2023-02-17T02:37:57.343Z,101192.72
2023-02-17T02:40:30.728Z,101184.75
2023-02-17T02:43:01.720Z,101183.75
2023-02-17T02:45:29.300Z,101178.28
2023-02-17T02:47:59.335Z,101176.47
2023-02-17T02:50:43.713Z,101169.97
2023-02-17T02:53:37.740Z,101184.09
2023-02-17T02:56:14.430Z,101188.56
2023-02-17T02:58:49.363Z,101191.72
2023-02-17T03:01:25.114Z,101197.19
2023-02-17T03:04:05.065Z,101196.19
2023-02-17T03:06:40.790Z,101189.06
2023-02-17T03:09:12.785Z,101182.91
2023-02-17T03:11:41.960Z,101187.06
2023-02-17T03:14:11.397Z,101170.47
2023-02-17T03:16:40.605Z,101162.97
2023-02-17T03:19:11.488Z,101155.34
2023-02-17T03:21:41.371Z,101156.69
2023-02-17T03:24:09.749Z,101150.72
2023-02-17T03:26:37.477Z,101154.84
2023-02-17T03:29:05.291Z,101165.81
2023-02-17T03:31:33.429Z,101164.84
2023-02-17T03:34:01.499Z,101157.34
2023-02-17T03:36:30.900Z,101152.03
2023-02-17T03:38:58.997Z,101146.56
2023-02-17T03:41:26.630Z,101146.72
2023-02-17T03:43:54.339Z,101145.56
2023-02-17T03:46:22.044Z,101137.59
2023-02-17T03:48:49.777Z,101150.53
2023-02-17T03:51:19.751Z,101142.22
2023-02-17T03:53:49.042Z,101140.72
2023-02-17T03:56:17.494Z,101129.09
2023-02-17T03:58:45.722Z,101125.47
2023-02-17T04:01:14.110Z,101118.34
2023-02-17T04:03:42.251Z,101116.16
2023-02-17T04:06:11.626Z,101113.19
2023-02-17T04:08:39.986Z,101114.66
2023-02-17T04:11:10.847Z,101096.25
2023-02-17T04:13:38.853Z,101104.03
2023-02-17T04:16:08.986Z,101103.88
2023-02-17T04:18:37.353Z,101092.22
2023-02-17T04:21:05.418Z,101073.31
2023-02-17T04:23:33.941Z,101079.63
2023-02-17T04:26:01.548Z,101072.31
2023-02-17T04:28:30.590Z,101067.47
2023-02-17T04:31:00.416Z,101063.00
2023-02-17T04:33:28.161Z,101059.16
2023-02-17T04:35:59.677Z,101072.59
2023-02-17T04:38:28.312Z,101068.63
2023-02-17T04:40:56.498Z,101066.13
2023-02-17T04:43:24.666Z,101079.88
2023-02-17T04:45:53.982Z,101059.47
2023-02-17T04:48:22.244Z,101049.50
2023-02-17T04:50:50.227Z,101057.94
2023-02-17T04:53:18.239Z,101043.81
2023-02-17T04:55:49.368Z,101029.56
2023-02-17T04:58:17.202Z,101040.38
2023-02-17T05:00:44.858Z,101030.09
2023-02-17T05:03:13.831Z,101023.75
2023-02-17T05:05:41.488Z,101011.16
2023-02-17T05:08:09.133Z,101022.41
2023-02-17T05:10:36.782Z,101012.97
2023-02-17T05:13:04.405Z,100986.41
2023-02-17T05:15:34.635Z,100984.72
2023-02-17T05:18:02.570Z,100972.28
2023-02-17T05:20:31.620Z,100973.75
2023-02-17T05:22:59.214Z,100986.41
2023-02-17T05:25:26.860Z,100984.72
2023-02-17T05:27:54.489Z,100972.94
2023-02-17T05:30:22.310Z,100967.63
2023-02-17T05:32:49.944Z,100972.09
2023-02-17T05:35:17.600Z,100958.81
2023-02-17T05:37:46.647Z,100959.00
2023-02-17T05:40:14.393Z,100948.84
2023-02-17T05:42:42.523Z,100937.56
2023-02-17T05:45:10.346Z,100946.19
2023-02-17T05:47:37.960Z,100930.09
2023-02-17T05:50:06.704Z,100921.28
2023-02-17T05:52:34.269Z,100924.63
2023-02-17T05:55:04.696Z,100920.94
2023-02-17T05:57:32.333Z,100918.28
2023-02-17T05:59:59.921Z,100921.41
2023-02-17T06:02:27.569Z,100924.06
2023-02-17T06:04:55.220Z,100919.44
2023-02-17T06:07:22.848Z,100912.25
2023-02-17T06:09:50.494Z,100911.25
2023-02-17T06:12:19.461Z,100908.44
2023-02-17T06:14:47.024Z,100912.38
2023-02-17T06:17:14.653Z,100907.06
2023-02-17T06:19:42.257Z,100904.03
2023-02-17T06:22:09.856Z,100900.41
2023-02-17T06:24:37.679Z,100889.13
2023-02-17T06:27:05.338Z,100890.75
2023-02-17T06:29:34.566Z,100887.28
2023-02-17T06:32:02.342Z,100876.84
2023-02-17T06:34:30.242Z,100884.97
2023-02-17T06:36:57.943Z,100878.31
2023-02-17T06:39:25.611Z,100878.13
2023-02-17T06:41:53.197Z,100857.25
2023-02-17T06:44:20.876Z,100843.13
2023-02-17T06:46:49.779Z,100841.28
2023-02-17T06:49:17.442Z,100833.13
2023-02-17T06:51:44.999Z,100826.81
2023-02-17T06:54:12.568Z,100834.78
2023-02-17T06:56:40.575Z,100832.75
2023-02-17T06:59:08.290Z,100817.81
2023-02-17T07:01:35.945Z,100818.38
2023-02-17T07:04:04.894Z,100821.50
2023-02-17T07:06:32.872Z,100841.28
2023-02-17T07:09:01.765Z,100824.97
2023-02-17T07:11:31.353Z,100816.81
2023-02-17T07:13:59.209Z,100817.66
2023-02-17T07:16:27.340Z,100808.84
2023-02-17T07:18:55.065Z,100806.00
2023-02-17T07:21:24.250Z,100791.22
2023-02-17T07:23:51.867Z,100787.38
2023-02-17T07:26:19.486Z,100796.56
2023-02-17T07:28:47.106Z,100791.06
2023-02-17T07:31:16.918Z,100802.53
2023-02-17T07:33:45.516Z,100786.59
2023-02-17T07:36:15.094Z,100768.78
2023-02-17T07:38:44.474Z,100762.47
2023-02-17T07:41:14.378Z,100758.53
2023-02-17T07:43:42.476Z,100757.34
2023-02-17T07:46:11.482Z,100768.63
2023-02-17T07:48:39.907Z,100735.06
2023-02-17T07:51:08.944Z,100742.88
2023-02-17T07:53:37.317Z,100746.53
2023-02-17T07:56:08.187Z,100740.94
2023-02-17T07:58:37.693Z,100739.94
2023-02-17T08:01:07.192Z,100741.03
2023-02-17T08:03:35.485Z,100747.97
2023-02-17T08:06:03.511Z,100721.78
2023-02-17T08:08:57.440Z,100710.31
2023-02-17T08:11:45.148Z,100710.78
2023-02-17T08:14:13.461Z,100689.50
2023-02-17T08:16:41.104Z,100668.44
2023-02-17T08:19:08.833Z,100684.19
2023-02-17T08:21:36.562Z,100684.19
2023-02-17T08:24:04.445Z,100671.56
2023-02-17T08:26:33.420Z,100682.00
2023-02-17T08:29:01.110Z,100656.00
2023-02-17T08:31:30.594Z,100663.59
2023-02-17T08:33:59.241Z,100669.34
2023-02-17T08:36:26.905Z,100662.84
2023-02-17T08:38:55.626Z,100676.13
2023-02-17T08:41:26.350Z,100683.09
2023-02-17T08:43:55.389Z,100697.84
2023-02-17T08:46:23.219Z,100713.16
2023-02-17T08:48:51.040Z,100671.25
2023-02-17T08:51:23.444Z,100656.50
2023-02-17T08:53:51.429Z,100659.53
2023-02-17T08:56:19.053Z,100640.75
2023-02-17T08:58:46.714Z,100656.34
2023-02-17T09:01:18.388Z,100631.56
2023-02-17T09:03:47.407Z,100640.56
2023-02-17T09:06:15.760Z,100633.25
2023-02-17T09:08:43.872Z,100631.22
2023-02-17T09:11:12.607Z,100619.75
2023-02-17T09:13:40.334Z,100630.56
2023-02-17T09:16:08.986Z,100608.28
2023-02-17T09:18:38.427Z,100601.97
2023-02-17T09:21:07.714Z,100624.06
2023-02-17T09:23:35.913Z,100611.75
2023-02-17T09:26:05.888Z,100623.59
2023-02-17T09:28:34.597Z,100625.88
2023-02-17T09:31:09.606Z,100624.59
2023-02-17T09:33:38.592Z,100620.56
2023-02-17T09:36:07.873Z,100625.25
2023-02-17T09:38:35.750Z,100611.22
2023-02-17T09:41:15.342Z,100612.41
2023-02-17T09:43:43.758Z,100615.88
2023-02-17T09:46:15.441Z,100604.03
2023-02-17T09:48:45.499Z,100599.75
2023-02-17T09:51:20.832Z,100602.88
2023-02-17T09:53:56.864Z,100581.59
2023-02-17T09:56:33.564Z,100601.00
2023-02-17T09:59:07.150Z,100599.56
2023-02-17T10:01:36.531Z,100601.13
2023-02-17T10:04:11.419Z,100606.91
2023-02-17T10:06:42.305Z,100596.28
2023-02-17T10:09:16.413Z,100582.34
2023-02-17T10:11:49.109Z,100604.63
2023-02-17T10:14:22.562Z,100609.56
2023-02-17T10:16:54.625Z,100589.97
2023-02-17T10:19:29.182Z,100609.72
2023-02-17T10:22:03.123Z,100604.25
2023-02-17T10:24:30.711Z,100582.59
2023-02-17T10:27:09.967Z,100584.44
2023-02-17T10:29:50.284Z,100589.38
2023-02-17T10:32:23.517Z,100605.16
2023-02-17T10:35:04.438Z,100590.19
2023-02-17T10:37:42.895Z,100582.03
2023-02-17T10:40:15.650Z,100595.31
2023-02-17T10:42:43.384Z,100579.38
2023-02-17T10:45:19.829Z,100561.97
2023-02-17T10:47:48.573Z,100566.28
2023-02-17T10:50:23.269Z,100562.63
2023-02-17T10:52:52.304Z,100577.75
2023-02-17T10:55:26.727Z,100587.53
2023-02-17T10:57:58.926Z,100595.97
2023-02-17T11:00:27.100Z,100573.66
2023-02-17T11:02:55.044Z,100566.72
2023-02-17T11:05:27.396Z,100586.16
2023-02-17T11:08:01.405Z,100557.09
2023-02-17T11:10:31.146Z,100548.56
2023-02-17T11:12:59.285Z,100561.66
2023-02-17T11:15:30.162Z,100558.69
2023-02-17T11:18:01.333Z,100563.63
2023-02-17T11:20:37.765Z,100530.13
2023-02-17T11:23:23.188Z,100546.31
2023-02-17T11:26:02.780Z,100572.81
2023-02-17T11:28:31.302Z,100539.66
2023-02-17T11:31:02.566Z,100539.69
2023-02-17T11:33:34.242Z,100543.19
2023-02-17T11:36:04.128Z,100547.94
2023-02-17T11:38:41.976Z,100541.59
2023-02-17T11:41:11.116Z,100532.97
2023-02-17T11:43:40.034Z,100511.31
2023-02-17T11:46:25.768Z,100525.63
2023-02-17T11:49:10.490Z,100514.59
2023-02-17T11:51:52.648Z,100501.72
2023-02-17T11:54:29.124Z,100512.38
2023-02-17T11:57:19.887Z,100508.25
2023-02-17T12:00:05.590Z,100519.97
2023-02-17T12:02:52.789Z,100507.69
2023-02-17T12:05:27.195Z,100523.72
2023-02-17T12:08:07.979Z,100522.78
2023-02-17T12:10:46.620Z,100520.56
2023-02-17T12:13:28.912Z,100512.66
2023-02-17T12:16:11.452Z,100519.50
2023-02-17T12:18:54.795Z,100527.72
2023-02-17T12:21:37.089Z,100514.31
2023-02-17T12:24:23.307Z,100518.63
2023-02-17T12:26:58.892Z,100506.13
2023-02-17T12:29:41.348Z,100488.53
2023-02-17T12:32:23.896Z,100485.84
2023-02-17T12:34:59.226Z,100498.16
2023-02-17T12:37:32.047Z,100496.34
2023-02-17T12:40:08.463Z,100487.09
2023-02-17T12:42:41.324Z,100495.47
2023-02-17T12:45:17.990Z,100510.22
2023-02-17T12:47:51.885Z,100508.16
2023-02-17T12:50:27.176Z,100507.91
2023-02-17T12:52:59.569Z,100504.84
2023-02-17T12:55:36.626Z,100516.91
2023-02-17T12:58:08.976Z,100530.38
2023-02-17T13:00:40.324Z,100512.94
2023-02-17T13:03:09.190Z,100533.03
2023-02-17T13:05:43.126Z,100536.13
2023-02-17T13:08:17.213Z,100507.66
2023-02-17T13:10:46.261Z,100506.06
2023-02-17T13:13:26.485Z,100518.94
2023-02-17T13:16:04.232Z,100518.34
2023-02-17T13:18:33.885Z,100506.25
2023-02-17T13:21:02.758Z,100501.09
2023-02-17T13:23:39.967Z,100517.25
2023-02-17T13:26:36.747Z,100501.88
2023-02-17T13:29:32.751Z,100513.94
2023-02-17T13:32:02.914Z,100497.09
2023-02-17T13:34:34.670Z,100496.91
2023-02-17T13:37:05.563Z,100497.53
2023-02-17T13:39:38.650Z,100481.94
2023-02-17T13:42:38.188Z,100476.81
2023-02-17T13:45:21.947Z,100506.72
2023-02-17T13:47:52.181Z,100492.75
2023-02-17T13:50:29.318Z,100508.13
2023-02-17T13:52:57.707Z,100504.63
2023-02-17T13:55:25.344Z,100507.13
2023-02-17T13:57:55.907Z,100509.16
2023-02-17T14:00:26.263Z,100522.31
2023-02-17T14:02:55.734Z,100509.59
2023-02-17T14:05:28.349Z,100511.59
2023-02-17T14:08:01.265Z,100505.88
2023-02-17T14:10:29.145Z,100505.88
2023-02-17T14:12:58.675Z,100514.00
2023-02-17T14:15:28.061Z,100507.50
2023-02-17T14:17:56.487Z,100511.66
2023-02-17T14:20:33.111Z,100515.31
2023-02-17T14:23:04.544Z,100523.69
2023-02-17T14:25:34.715Z,100517.97
2023-02-17T14:28:04.711Z,100526.59
2023-02-17T14:30:35.369Z,100519.81
2023-02-17T14:33:08.707Z,100538.03
2023-02-17T14:35:39.163Z,100525.88
2023-02-17T14:38:20.697Z,100533.22
2023-02-17T14:40:50.171Z,100554.66
2023-02-17T14:43:19.183Z,100563.44
2023-02-17T14:45:46.826Z,100569.47
2023-02-17T14:48:14.557Z,100579.59
2023-02-17T14:50:44.197Z,100603.91
2023-02-17T14:53:15.066Z,100567.66
2023-02-17T14:55:47.793Z,100581.97
2023-02-17T14:58:21.476Z,100604.06
2023-02-17T15:00:50.151Z,100587.88
2023-02-17T15:03:17.946Z,100577.59
2023-02-17T15:05:46.242Z,100601.09
2023-02-17T15:08:17.029Z,100605.16
2023-02-17T15:10:45.284Z,100607.19
2023-02-17T15:13:15.854Z,100628.09
2023-02-17T15:15:47.458Z,100611.41
2023-02-17T15:18:17.572Z,100624.28
2023-02-17T15:20:46.987Z,100635.03
2023-02-17T15:23:16.538Z,100627.97
2023-02-17T15:25:45.156Z,100648.44
2023-02-17T15:28:13.842Z,100655.50
2023-02-17T15:30:41.619Z,100664.38
2023-02-17T15:33:13.461Z,100651.66
2023-02-17T15:35:41.735Z,100670.91
2023-02-17T15:38:12.666Z,100681.63
2023-02-17T15:40:41.690Z,100682.38
2023-02-17T15:43:14.286Z,100682.56
2023-02-17T15:45:41.981Z,100682.13
2023-02-17T15:48:18.600Z,100690.25
2023-02-17T15:50:46.142Z,100689.78
2023-02-17T15:53:13.759Z,100703.44
2023-02-17T15:55:41.847Z,100703.50
2023-02-17T15:58:16.537Z,100700.56
2023-02-17T16:00:46.606Z,100716.59
2023-02-17T16:03:16.475Z,100716.13
2023-02-17T16:05:44.178Z,100706.34
2023-02-17T16:08:11.785Z,100712.44
2023-02-17T16:10:42.312Z,100723.00
2023-02-17T16:13:14.285Z,100710.78
2023-02-17T16:15:42.702Z,100707.00
2023-02-17T16:18:17.371Z,100717.53
2023-02-17T16:20:45.013Z,100734.66
2023-02-17T16:23:12.658Z,100735.81
2023-02-17T16:25:43.071Z,100746.63
2023-02-17T16:28:15.708Z,100744.47
2023-02-17T16:30:44.414Z,100752.16
2023-02-17T16:33:12.140Z,100753.69
2023-02-17T16:35:42.458Z,100750.06
2023-02-17T16:38:15.383Z,100766.53
2023-02-17T16:40:47.317Z,100742.19
2023-02-17T16:43:16.153Z,100726.81
2023-02-17T16:45:52.285Z,100747.53
2023-02-17T16:48:24.172Z,100741.41
2023-02-17T16:50:53.278Z,100759.34
2023-02-17T16:53:21.473Z,100759.84
2023-02-17T16:55:49.392Z,100769.97
2023-02-17T16:58:19.734Z,100770.81
2023-02-17T17:00:49.146Z,100804.78
2023-02-17T17:03:16.857Z,100794.19
2023-02-17T17:05:44.831Z,100795.84
2023-02-17T17:08:16.427Z,100811.75
2023-02-17T17:10:45.862Z,100817.91
2023-02-17T17:13:14.447Z,100800.50
2023-02-17T17:15:43.932Z,100783.91
2023-02-17T17:18:19.859Z,100785.53
2023-02-17T17:20:48.114Z,100788.38
2023-02-17T17:23:18.674Z,100809.59
2023-02-17T17:25:48.388Z,100819.06
2023-02-17T17:28:18.627Z,100817.75
2023-02-17T17:30:47.283Z,100821.06
2023-02-17T17:33:15.118Z,100819.41
2023-02-17T17:35:43.209Z,100852.22
2023-02-17T17:38:14.018Z,100834.84
2023-02-17T17:40:49.113Z,100854.59
2023-02-17T17:43:16.994Z,100852.88
2023-02-17T17:45:44.632Z,100826.50
2023-02-17T17:48:14.145Z,100854.50
2023-02-17T17:50:43.117Z,100822.84
2023-02-17T17:53:11.155Z,100859.16
2023-02-17T17:55:39.183Z,100849.22
2023-02-17T17:58:08.170Z,100877.22
2023-02-17T18:00:35.858Z,100869.13
2023-02-17T18:03:03.868Z,100884.69
2023-02-17T18:05:31.660Z,100883.69
2023-02-17T18:07:59.370Z,100894.13
2023-02-17T18:10:27.027Z,100892.13
2023-02-17T18:12:54.763Z,100897.44
2023-02-17T18:15:23.806Z,100902.72
2023-02-17T18:17:52.505Z,100910.38
2023-02-17T18:20:20.397Z,100909.56
2023-02-17T18:22:48.016Z,100931.44
2023-02-17T18:25:15.635Z,100930.31
2023-02-17T18:27:46.095Z,100936.09
2023-02-17T18:30:16.364Z,100935.59
2023-02-17T18:32:45.954Z,100933.47
2023-02-17T18:35:14.567Z,100936.81
2023-02-17T18:37:42.534Z,100958.34
2023-02-17T18:40:12.982Z,100959.34
2023-02-17T18:42:41.542Z,100948.25
2023-02-17T18:45:10.476Z,100949.41
2023-02-17T18:47:38.562Z,100968.13
2023-02-17T18:50:09.438Z,100966.47
2023-02-17T18:52:37.575Z,100959.69
2023-02-17T18:55:06.055Z,100982.84
2023-02-17T18:57:34.763Z,100984.19
2023-02-17T19:00:03.520Z,100987.66
2023-02-17T19:02:31.220Z,100978.91
2023-02-17T19:04:58.799Z,100962.81
2023-02-17T19:07:27.870Z,101007.72
2023-02-17T19:09:55.494Z,100978.41
2023-02-17T19:12:23.245Z,100991.50
2023-02-17T19:14:55.530Z,100993.31
2023-02-17T19:17:24.480Z,101015.00
2023-02-17T19:19:52.602Z,100998.28
2023-02-17T19:22:20.965Z,101028.25
2023-02-17T19:24:55.270Z,101040.69
2023-02-17T19:27:22.994Z,101040.69
2023-02-17T19:29:50.616Z,101033.56
2023-02-17T19:32:18.297Z,101032.88
2023-02-17T19:34:45.974Z,101049.59
2023-02-17T19:37:13.651Z,101048.78
2023-02-17T19:39:41.282Z,101059.38
2023-02-17T19:42:10.206Z,101050.78
2023-02-17T19:44:37.806Z,101064.03
2023-02-17T19:47:05.417Z,101068.47
2023-02-17T19:49:34.440Z,101069.97
2023-02-17T19:52:02.031Z,101074.44
2023-02-17T19:54:29.677Z,101095.63
2023-02-17T19:56:57.244Z,101096.81
2023-02-17T19:59:26.370Z,101099.31
2023-02-17T20:01:53.966Z,101070.81
2023-02-17T20:04:21.552Z,101093.47
2023-02-17T20:06:49.731Z,101088.97
2023-02-17T20:09:19.548Z,101099.75
2023-02-17T20:11:49.631Z,101092.78
2023-02-17T20:14:17.254Z,101094.47
2023-02-17T20:16:48.387Z,101108.03
2023-02-17T20:19:16.790Z,101112.03
2023-02-17T20:21:45.804Z,101116.63
2023-02-17T20:24:14.238Z,101124.59
2023-02-17T20:26:44.257Z,101133.22
2023-02-17T20:29:12.953Z,101143.63
2023-02-17T20:31:42.057Z,101143.31
2023-02-17T20:34:24.848Z,101151.13
2023-02-17T20:36:52.486Z,101149.28
2023-02-17T20:39:20.774Z,101157.09
2023-02-17T20:41:48.775Z,101170.84
2023-02-17T20:44:17.611Z,101178.31
2023-02-17T20:46:45.892Z,101182.31
2023-02-17T20:49:15.950Z,101195.38
2023-02-17T20:51:43.655Z,101177.84
2023-02-17T20:54:11.298Z,101190.91
2023-02-17T20:56:41.291Z,101184.78
2023-02-17T20:59:09.900Z,101201.50
2023-02-17T21:01:37.744Z,101219.09
2023-02-17T21:04:05.529Z,101224.22
2023-02-17T21:06:38.086Z,101206.81
2023-02-17T21:09:08.904Z,101221.75
2023-02-17T21:11:36.606Z,101207.13
2023-02-17T21:14:04.279Z,101231.00
2023-02-17T21:16:32.511Z,101240.59
2023-02-17T21:19:01.718Z,101231.66
2023-02-17T21:21:30.587Z,101241.44
2023-02-17T21:24:00.353Z,101231.50
2023-02-17T21:26:28.229Z,101241.13
2023-02-17T21:28:56.082Z,101248.06
2023-02-17T21:31:24.001Z,101255.34
2023-02-17T21:33:51.660Z,101238.97
2023-02-17T21:36:19.798Z,101238.97
2023-02-17T21:38:48.565Z,101253.03
2023-02-17T21:41:19.778Z,101242.44
2023-02-17T21:44:05.220Z,101270.44
2023-02-17T21:46:33.874Z,101265.78
2023-02-17T21:49:02.567Z,101269.59
2023-02-17T21:51:30.707Z,101278.69
2023-02-17T21:53:59.207Z,101280.50
2023-02-17T21:56:28.349Z,101290.63
2023-02-17T21:58:56.546Z,101273.19
2023-02-17T22:01:26.888Z,101287.75
2023-02-17T22:03:55.336Z,101301.34
2023-02-17T22:06:25.227Z,101302.81
2023-02-17T22:08:53.451Z,101308.13
2023-02-17T22:11:23.212Z,101312.69
2023-02-17T22:13:55.082Z,101309.00
2023-02-17T22:16:22.808Z,101308.81
2023-02-17T22:18:50.687Z,101326.81
2023-02-17T22:21:18.681Z,101322.78
2023-02-17T22:23:46.570Z,101322.00
2023-02-17T22:26:16.282Z,101326.97
2023-02-17T22:28:44.082Z,101337.41
2023-02-17T22:31:15.862Z,101335.28
2023-02-17T22:33:44.410Z,101351.19
2023-02-17T22:36:14.098Z,101338.78
2023-02-17T22:38:42.121Z,101334.28
2023-02-17T22:41:12.009Z,101339.88
2023-02-17T22:43:41.153Z,101355.94
2023-02-17T22:46:10.758Z,101335.59
2023-02-17T22:48:40.122Z,101348.66
2023-02-17T22:51:09.037Z,101346.84
2023-02-17T22:53:37.917Z,101342.72
2023-02-17T22:56:06.982Z,101357.22
2023-02-17T22:58:36.238Z,101364.81
2023-02-17T23:01:06.056Z,101357.84
2023-02-17T23:03:34.228Z,101369.13
2023-02-17T23:06:05.264Z,101373.59
2023-02-17T23:08:33.103Z,101358.97
2023-02-17T23:11:04.350Z,101378.53
2023-02-17T23:13:32.029Z,101369.88
2023-02-17T23:15:59.694Z,101370.19
2023-02-17T23:18:29.408Z,101366.19
2023-02-17T23:20:57.137Z,101361.03
2023-02-17T23:23:26.333Z,101381.56
2023-02-17T23:25:56.433Z,101380.84
2023-02-17T23:28:26.484Z,101380.19
2023-02-17T23:30:54.492Z,101368.38
2023-02-17T23:33:24.124Z,101360.44
2023-02-17T23:35:51.737Z,101370.19
2023-02-17T23:38:21.363Z,101373.81
2023-02-17T23:40:51.727Z,101377.47
2023-02-17T23:43:20.285Z,101387.22
2023-02-17T23:45:47.885Z,101396.66
2023-02-17T23:48:16.141Z,101406.28
2023-02-17T23:50:43.803Z,101402.50
2023-02-17T23:53:11.520Z,101405.28
2023-02-17T23:55:39.084Z,101407.13
2023-02-17T23:58:08.047Z,101405.97
